Aérodrome :
LOGIN :

S'inscrire | Disclaimer

   EN    FR    IT 

 










Légende :    VFR   VFR Marginal   IFR   IFR Intensif   IFR Très Intensif
Visi : 
Plafond : 
>= 8 km
>= 3000ft
5 à 8 km
1000 à 3000 ft
1500m à 5 km
500 à 1000 ft
800 à 1500m
200 à 500 ft
< 800m
< 200 ft
Symboles :   Orages  Brouillard  Fortes neiges  Fortes précipitations  Vent > 20 kt
SIGMETs :   Divers  Orages  Givrage  Turbulence  Onde Orograph.  Cendres Volcan.







- Altitude de l'aérodrome : 1000 ft
- Code IATA : PEV


LHPP - Pécs Pogany

DERNIER METAR :
  • 241515Z 33007KT 9999 -SHRA SCT020CB SCT030 17/17 Q1017

METARs EXPIRÉS :
  • 241513Z 33007KT 9999 SCT020CB SCT030 17/17 Q1017 RETS
  • 241445Z 30012KT 7000 TSRA SCT020CB SCT030 17/16 Q1017
  • 241348Z 32006KT 9999 TSRA FEW033CB BKN046 23/16 Q1016
  • 241345Z 32005KT 9999 FEW033CB BKN046 24/16 Q1016
  • 241315Z 18002KT 9999 FEW033CB BKN046 26/14 Q1016
  • 241251Z 10004KT 9999 FEW033CB BKN046 26/14 Q1016
  • 241245Z 11005KT 9999 BKN046 25/15 Q1017

TAF TAF LHPP
Valide du 24 à 12h jusqu'au 24 à 21h UTC


241115Z 2412/2421 09005KT 9999 BKN045
TEMPO 2412/2421 VRB18G28KT 5000 SHRA TSRA BKN040CB
PROB30
TEMPO 2412/2419 2000 TSGR
Pas de NOTAMs connus pour ce terrain.
2 SIGMETs publiés pour la FIR Budapest (LHCC) :
 
Orages fréquents
LHCC SIGMET 03 VALID 241600/241800 LHBP
LHCC BUDAPEST FIR FRQ TS FCST WI N4758 E01845 - N4708 E02100 - N4606 E01947 - N4729 E01750 - N4758 E01845 TOP FL390 STNR INTSF=
Orages fréquents
LHCC SIGMET 02 VALID 241415/241600 LHBP
LHCC BUDAPEST FIR FRQ TS FCST WI N4545 E01808 - N4647 E01700 - N4715 E01821 - N4554 E01858 - N4545 E01808 AND WI N4604 E01929 - N4746 E02036 - N4720 E02156 - N4610 E02105 - N4604 E01929 TOP FL390 STNR INTSF=



MET'MAP, la Météo Aéronautique d'un coup d'oeil ! - Copyright ORBIFLY Décembre 2007 - Disclaimer

ORBIFLY MET'MAP TEAM :

Programmation & Développement : Alexandra Zaïnal
Conception & Développement : Baudouin d'Aumeries
Co-Programmation & Développement : Marc-Olivier Méhu
Soutien technique & logistique : Manuel Goepfert

Contact : metmap@orbifly.com




SOURCES & CREDITS :

   NOAA